sensor_id;sensor_type;location;lat;lon;timestamp;noise_LAeq;noise_LA_min;noise_LA_max;noise_LA01;noise_LA95
72028;Laerm;59781;52.090;5.030;2024-03-02T00:00:10;48.52;39.81;70.81;;
72028;Laerm;59781;52.090;5.030;2024-03-02T00:02:41;46.84;38.78;64.22;;
72028;Laerm;59781;52.090;5.030;2024-03-02T00:05:08;51.68;40.52;79.37;;
72028;Laerm;59781;52.090;5.030;2024-03-02T00:07:36;45.49;39.66;67.91;;
72028;Laerm;59781;52.090;5.030;2024-03-02T00:10:09;53.88;39.12;83.35;;
72028;Laerm;59781;52.090;5.030;2024-03-02T00:12:40;43.46;38.96;66.20;;
72028;Laerm;59781;52.090;5.030;2024-03-02T00:17:56;46.60;39.82;68.83;;
72028;Laerm;59781;52.090;5.030;2024-03-02T00:20:23;43.95;39.74;64.05;;
72028;Laerm;59781;52.090;5.030;2024-03-02T00:22:50;43.90;40.08;63.17;;
72028;Laerm;59781;52.090;5.030;2024-03-02T00:25:16;44.12;39.34;67.21;;
72028;Laerm;59781;52.090;5.030;2024-03-02T00:27:47;46.02;40.16;72.65;;
72028;Laerm;59781;52.090;5.030;2024-03-02T00:33:10;44.26;40.02;59.52;;
72028;Laerm;59781;52.090;5.030;2024-03-02T00:35:36;43.80;40.11;60.40;;
72028;Laerm;59781;52.090;5.030;2024-03-02T00:38:06;43.54;40.02;68.78;;
72028;Laerm;59781;52.090;5.030;2024-03-02T00:40:32;44.29;39.85;59.55;;
72028;Laerm;59781;52.090;5.030;2024-03-02T00:42:58;43.21;38.90;61.66;;
72028;Laerm;59781;52.090;5.030;2024-03-02T00:45:25;42.69;38.79;56.51;;
72028;Laerm;59781;52.090;5.030;2024-03-02T00:47:53;40.83;37.45;52.61;;
72028;Laerm;59781;52.090;5.030;2024-03-02T00:50:18;42.52;38.41;67.11;;
72028;Laerm;59781;52.090;5.030;2024-03-02T00:52:46;41.85;38.47;54.43;;
72028;Laerm;59781;52.090;5.030;2024-03-02T00:55:14;49.15;38.55;75.18;;
72028;Laerm;59781;52.090;5.030;2024-03-02T00:57:40;46.39;37.93;73.17;;
72028;Laerm;59781;52.090;5.030;2024-03-02T01:00:07;43.85;38.52;60.27;;
72028;Laerm;59781;52.090;5.030;2024-03-02T01:02:36;42.66;38.57;61.94;;
72028;Laerm;59781;52.090;5.030;2024-03-02T01:05:01;42.86;39.11;63.58;;
72028;Laerm;59781;52.090;5.030;2024-03-02T01:07:27;41.51;38.64;56.14;;
72028;Laerm;59781;52.090;5.030;2024-03-02T01:09:53;42.10;38.45;60.93;;
72028;Laerm;59781;52.090;5.030;2024-03-02T01:12:18;43.10;38.53;65.61;;
72028;Laerm;59781;52.090;5.030;2024-03-02T01:14:44;43.41;38.70;67.17;;
72028;Laerm;59781;52.090;5.030;2024-03-02T01:17:10;42.59;39.00;61.12;;
72028;Laerm;59781;52.090;5.030;2024-03-02T01:19:35;42.58;38.67;57.68;;
72028;Laerm;59781;52.090;5.030;2024-03-02T01:22:01;41.52;38.63;56.85;;
72028;Laerm;59781;52.090;5.030;2024-03-02T01:24:27;43.24;37.80;71.09;;
72028;Laerm;59781;52.090;5.030;2024-03-02T01:26:52;50.15;37.60;76.35;;
72028;Laerm;59781;52.090;5.030;2024-03-02T01:29:18;42.75;38.08;66.82;;
72028;Laerm;59781;52.090;5.030;2024-03-02T01:31:44;44.57;39.04;72.77;;
72028;Laerm;59781;52.090;5.030;2024-03-02T01:34:10;46.81;38.87;68.84;;
72028;Laerm;59781;52.090;5.030;2024-03-02T01:36:38;41.99;38.61;65.25;;
72028;Laerm;59781;52.090;5.030;2024-03-02T01:39:03;43.69;38.35;65.61;;
72028;Laerm;59781;52.090;5.030;2024-03-02T01:41:29;44.25;39.27;67.67;;
72028;Laerm;59781;52.090;5.030;2024-03-02T01:43:55;47.70;39.99;72.44;;
72028;Laerm;59781;52.090;5.030;2024-03-02T01:46:21;45.10;39.59;66.13;;
72028;Laerm;59781;52.090;5.030;2024-03-02T01:48:47;44.36;38.75;69.80;;
72028;Laerm;59781;52.090;5.030;2024-03-02T01:51:13;43.54;38.50;64.74;;
72028;Laerm;59781;52.090;5.030;2024-03-02T01:53:39;44.53;38.72;66.48;;
72028;Laerm;59781;52.090;5.030;2024-03-02T01:56:04;45.84;38.93;64.57;;
72028;Laerm;59781;52.090;5.030;2024-03-02T01:58:30;45.63;39.53;69.19;;
72028;Laerm;59781;52.090;5.030;2024-03-02T02:00:56;49.89;39.86;74.86;;
72028;Laerm;59781;52.090;5.030;2024-03-02T02:03:22;48.10;38.63;71.37;;
72028;Laerm;59781;52.090;5.030;2024-03-02T02:05:47;41.78;38.14;58.70;;
72028;Laerm;59781;52.090;5.030;2024-03-02T02:08:13;43.34;38.25;61.84;;
72028;Laerm;59781;52.090;5.030;2024-03-02T02:10:39;42.64;38.50;62.07;;
72028;Laerm;59781;52.090;5.030;2024-03-02T02:13:05;51.41;38.29;80.61;;
72028;Laerm;59781;52.090;5.030;2024-03-02T02:15:31;45.22;38.03;66.58;;
72028;Laerm;59781;52.090;5.030;2024-03-02T02:17:58;40.91;38.42;52.37;;
72028;Laerm;59781;52.090;5.030;2024-03-02T02:20:25;45.39;38.65;68.43;;
72028;Laerm;59781;52.090;5.030;2024-03-02T02:25:28;42.42;38.14;69.07;;
72028;Laerm;59781;52.090;5.030;2024-03-02T02:27:55;49.61;37.54;76.55;;
72028;Laerm;59781;52.090;5.030;2024-03-02T02:30:24;46.71;38.70;76.19;;
72028;Laerm;59781;52.090;5.030;2024-03-02T02:32:51;46.18;38.76;67.26;;
72028;Laerm;59781;52.090;5.030;2024-03-02T02:35:17;49.88;37.97;76.17;;
72028;Laerm;59781;52.090;5.030;2024-03-02T02:37:45;46.07;37.70;77.38;;
72028;Laerm;59781;52.090;5.030;2024-03-02T02:40:12;40.42;37.54;46.06;;
72028;Laerm;59781;52.090;5.030;2024-03-02T02:42:38;45.68;37.99;68.11;;
72028;Laerm;59781;52.090;5.030;2024-03-02T02:45:06;43.09;37.77;65.85;;
72028;Laerm;59781;52.090;5.030;2024-03-02T02:47:32;41.28;37.90;55.13;;
72028;Laerm;59781;52.090;5.030;2024-03-02T02:50:04;43.20;37.61;65.04;;
72028;Laerm;59781;52.090;5.030;2024-03-02T02:52:37;41.71;37.92;62.87;;
72028;Laerm;59781;52.090;5.030;2024-03-02T02:55:10;40.98;37.73;58.65;;
72028;Laerm;59781;52.090;5.030;2024-03-02T02:57:39;43.30;38.23;64.79;;
72028;Laerm;59781;52.090;5.030;2024-03-02T03:00:11;40.07;37.76;49.24;;
72028;Laerm;59781;52.090;5.030;2024-03-02T03:02:42;40.66;37.88;57.80;;
72028;Laerm;59781;52.090;5.030;2024-03-02T03:05:11;43.36;37.91;64.55;;
72028;Laerm;59781;52.090;5.030;2024-03-02T03:07:38;45.57;37.53;70.49;;
72028;Laerm;59781;52.090;5.030;2024-03-02T03:10:05;41.85;37.89;59.13;;
72028;Laerm;59781;52.090;5.030;2024-03-02T03:12:33;41.14;38.35;54.13;;
72028;Laerm;59781;52.090;5.030;2024-03-02T03:14:59;44.26;38.47;70.59;;
72028;Laerm;59781;52.090;5.030;2024-03-02T03:17:26;43.16;38.29;63.58;;
72028;Laerm;59781;52.090;5.030;2024-03-02T03:19:52;40.97;38.46;50.61;;
72028;Laerm;59781;52.090;5.030;2024-03-02T03:22:18;41.09;38.07;51.68;;
72028;Laerm;59781;52.090;5.030;2024-03-02T03:24:44;41.65;38.19;64.40;;
72028;Laerm;59781;52.090;5.030;2024-03-02T03:27:10;41.58;37.88;61.00;;
72028;Laerm;59781;52.090;5.030;2024-03-02T03:29:37;42.78;38.54;63.31;;
72028;Laerm;59781;52.090;5.030;2024-03-02T03:32:02;45.28;38.52;70.50;;
72028;Laerm;59781;52.090;5.030;2024-03-02T03:34:33;51.31;38.18;78.83;;
72028;Laerm;59781;52.090;5.030;2024-03-02T03:36:59;44.43;38.44;64.63;;
72028;Laerm;59781;52.090;5.030;2024-03-02T03:39:24;54.08;38.37;83.64;;
72028;Laerm;59781;52.090;5.030;2024-03-02T03:41:50;41.55;38.03;57.87;;
72028;Laerm;59781;52.090;5.030;2024-03-02T03:44:16;45.94;38.10;69.74;;
72028;Laerm;59781;52.090;5.030;2024-03-02T03:46:42;43.58;38.00;63.27;;
72028;Laerm;59781;52.090;5.030;2024-03-02T03:49:07;41.48;37.70;60.57;;
72028;Laerm;59781;52.090;5.030;2024-03-02T03:51:33;46.10;38.24;70.59;;
72028;Laerm;59781;52.090;5.030;2024-03-02T03:53:59;41.98;38.13;59.88;;
72028;Laerm;59781;52.090;5.030;2024-03-02T03:56:25;46.41;38.86;71.16;;
72028;Laerm;59781;52.090;5.030;2024-03-02T03:58:50;50.84;38.31;75.35;;
72028;Laerm;59781;52.090;5.030;2024-03-02T04:01:16;41.85;38.70;62.48;;
72028;Laerm;59781;52.090;5.030;2024-03-02T04:03:42;46.86;38.79;73.11;;
72028;Laerm;59781;52.090;5.030;2024-03-02T04:06:07;41.53;38.70;50.90;;
72028;Laerm;59781;52.090;5.030;2024-03-02T04:08:33;43.52;38.46;63.50;;
72028;Laerm;59781;52.090;5.030;2024-03-02T04:10:59;46.19;38.45;67.89;;
72028;Laerm;59781;52.090;5.030;2024-03-02T04:13:24;41.39;38.91;49.80;;
72028;Laerm;59781;52.090;5.030;2024-03-02T04:15:50;47.81;38.20;69.45;;
72028;Laerm;59781;52.090;5.030;2024-03-02T04:18:16;42.47;38.28;62.95;;
72028;Laerm;59781;52.090;5.030;2024-03-02T04:20:41;46.06;38.73;68.75;;
72028;Laerm;59781;52.090;5.030;2024-03-02T04:23:07;41.97;38.77;52.30;;
72028;Laerm;59781;52.090;5.030;2024-03-02T04:25:33;42.04;38.19;59.36;;
72028;Laerm;59781;52.090;5.030;2024-03-02T04:27:59;41.73;38.91;53.80;;
72028;Laerm;59781;52.090;5.030;2024-03-02T04:30:24;47.91;39.59;73.28;;
72028;Laerm;59781;52.090;5.030;2024-03-02T04:32:51;41.50;38.91;51.96;;
72028;Laerm;59781;52.090;5.030;2024-03-02T04:35:16;43.82;38.97;64.13;;
72028;Laerm;59781;52.090;5.030;2024-03-02T04:37:42;42.64;38.97;63.64;;
72028;Laerm;59781;52.090;5.030;2024-03-02T04:40:08;50.17;39.17;74.27;;
72028;Laerm;59781;52.090;5.030;2024-03-02T04:42:35;41.98;38.66;46.90;;
72028;Laerm;59781;52.090;5.030;2024-03-02T04:45:01;44.41;38.90;72.93;;
72028;Laerm;59781;52.090;5.030;2024-03-02T04:47:27;42.47;38.88;57.91;;
72028;Laerm;59781;52.090;5.030;2024-03-02T04:49:53;42.19;38.81;54.15;;
72028;Laerm;59781;52.090;5.030;2024-03-02T04:52:19;41.78;38.93;52.59;;
72028;Laerm;59781;52.090;5.030;2024-03-02T04:54:44;43.49;38.33;63.66;;
72028;Laerm;59781;52.090;5.030;2024-03-02T04:57:39;43.72;38.76;64.30;;
72028;Laerm;59781;52.090;5.030;2024-03-02T05:00:05;41.69;38.76;60.78;;
72028;Laerm;59781;52.090;5.030;2024-03-02T05:02:33;46.50;38.88;69.57;;
72028;Laerm;59781;52.090;5.030;2024-03-02T05:04:58;41.47;38.51;59.76;;
72028;Laerm;59781;52.090;5.030;2024-03-02T05:07:24;41.52;38.87;47.48;;
72028;Laerm;59781;52.090;5.030;2024-03-02T05:09:49;43.64;39.84;67.97;;
72028;Laerm;59781;52.090;5.030;2024-03-02T05:12:15;42.62;39.24;51.27;;
72028;Laerm;59781;52.090;5.030;2024-03-02T05:14:59;43.41;39.63;61.71;;
72028;Laerm;59781;52.090;5.030;2024-03-02T05:17:25;42.18;39.24;50.06;;
72028;Laerm;59781;52.090;5.030;2024-03-02T05:19:51;44.01;40.05;66.61;;
72028;Laerm;59781;52.090;5.030;2024-03-02T05:22:16;43.11;39.68;62.51;;
72028;Laerm;59781;52.090;5.030;2024-03-02T05:24:42;43.01;39.60;55.64;;
72028;Laerm;59781;52.090;5.030;2024-03-02T05:27:08;46.59;40.53;65.52;;
72028;Laerm;59781;52.090;5.030;2024-03-02T05:29:33;43.27;40.05;56.42;;
72028;Laerm;59781;52.090;5.030;2024-03-02T05:31:59;42.92;40.43;54.44;;
72028;Laerm;59781;52.090;5.030;2024-03-02T05:34:24;44.39;40.48;67.11;;
72028;Laerm;59781;52.090;5.030;2024-03-02T05:36:50;44.30;41.00;62.03;;
72028;Laerm;59781;52.090;5.030;2024-03-02T05:39:16;47.55;41.75;69.82;;
72028;Laerm;59781;52.090;5.030;2024-03-02T05:41:41;46.24;40.83;68.33;;
72028;Laerm;59781;52.090;5.030;2024-03-02T05:44:07;45.76;40.63;66.50;;
72028;Laerm;59781;52.090;5.030;2024-03-02T05:46:33;44.18;40.08;59.68;;
72028;Laerm;59781;52.090;5.030;2024-03-02T05:48:59;51.22;40.52;80.23;;
72028;Laerm;59781;52.090;5.030;2024-03-02T05:51:26;48.50;40.84;74.93;;
72028;Laerm;59781;52.090;5.030;2024-03-02T05:53:52;44.61;40.66;62.25;;
72028;Laerm;59781;52.090;5.030;2024-03-02T05:56:17;43.43;40.67;57.34;;
72028;Laerm;59781;52.090;5.030;2024-03-02T05:58:43;45.10;41.52;63.01;;
72028;Laerm;59781;52.090;5.030;2024-03-02T06:01:27;49.76;41.14;74.74;;
72028;Laerm;59781;52.090;5.030;2024-03-02T06:03:56;45.62;40.69;68.97;;
72028;Laerm;59781;52.090;5.030;2024-03-02T06:06:25;48.95;40.50;74.96;;
72028;Laerm;59781;52.090;5.030;2024-03-02T06:08:52;44.93;40.65;61.45;;
72028;Laerm;59781;52.090;5.030;2024-03-02T06:11:20;51.06;41.24;78.25;;
72028;Laerm;59781;52.090;5.030;2024-03-02T06:13:46;45.29;40.67;66.59;;
72028;Laerm;59781;52.090;5.030;2024-03-02T06:16:12;45.39;40.44;65.49;;
72028;Laerm;59781;52.090;5.030;2024-03-02T06:18:37;44.76;40.11;63.79;;
72028;Laerm;59781;52.090;5.030;2024-03-02T06:21:03;44.26;40.36;62.98;;
72028;Laerm;59781;52.090;5.030;2024-03-02T06:23:29;46.10;40.63;60.31;;
72028;Laerm;59781;52.090;5.030;2024-03-02T06:25:55;49.82;41.16;72.59;;
72028;Laerm;59781;52.090;5.030;2024-03-02T06:28:20;46.77;40.37;68.07;;
72028;Laerm;59781;52.090;5.030;2024-03-02T06:30:46;50.47;41.88;71.26;;
72028;Laerm;59781;52.090;5.030;2024-03-02T06:33:12;44.65;41.18;63.40;;
72028;Laerm;59781;52.090;5.030;2024-03-02T06:35:38;44.61;40.98;61.66;;
72028;Laerm;59781;52.090;5.030;2024-03-02T06:38:04;49.89;41.66;72.25;;
72028;Laerm;59781;52.090;5.030;2024-03-02T06:40:30;46.96;41.16;64.00;;
72028;Laerm;59781;52.090;5.030;2024-03-02T06:42:56;49.27;41.94;71.17;;
72028;Laerm;59781;52.090;5.030;2024-03-02T06:45:21;48.06;41.04;70.70;;
72028;Laerm;59781;52.090;5.030;2024-03-02T06:47:47;49.22;41.27;73.73;;
72028;Laerm;59781;52.090;5.030;2024-03-02T06:50:13;52.20;41.34;80.71;;
72028;Laerm;59781;52.090;5.030;2024-03-02T06:52:38;46.29;41.91;65.31;;
72028;Laerm;59781;52.090;5.030;2024-03-02T06:55:05;46.57;42.69;61.53;;
72028;Laerm;59781;52.090;5.030;2024-03-02T06:57:31;50.70;43.45;74.62;;
72028;Laerm;59781;52.090;5.030;2024-03-02T06:59:56;46.88;42.81;59.06;;
72028;Laerm;59781;52.090;5.030;2024-03-02T07:02:27;53.40;42.40;80.75;;
72028;Laerm;59781;52.090;5.030;2024-03-02T07:04:56;47.58;42.03;68.05;;
72028;Laerm;59781;52.090;5.030;2024-03-02T07:07:21;47.33;42.32;62.76;;
72028;Laerm;59781;52.090;5.030;2024-03-02T07:09:47;45.87;42.20;62.96;;
72028;Laerm;59781;52.090;5.030;2024-03-02T07:12:13;46.82;41.95;64.58;;
72028;Laerm;59781;52.090;5.030;2024-03-02T07:14:39;49.22;42.66;73.02;;
72028;Laerm;59781;52.090;5.030;2024-03-02T07:17:23;48.07;42.16;69.76;;
72028;Laerm;59781;52.090;5.030;2024-03-02T07:19:50;55.81;43.20;79.06;;
72028;Laerm;59781;52.090;5.030;2024-03-02T07:22:16;58.58;42.21;84.79;;
72028;Laerm;59781;52.090;5.030;2024-03-02T07:24:43;47.65;42.84;64.58;;
72028;Laerm;59781;52.090;5.030;2024-03-02T07:27:12;47.27;42.55;66.32;;
72028;Laerm;59781;52.090;5.030;2024-03-02T07:29:39;45.95;41.56;59.67;;
72028;Laerm;59781;52.090;5.030;2024-03-02T07:32:07;48.74;42.88;72.09;;
72028;Laerm;59781;52.090;5.030;2024-03-02T07:34:34;47.26;42.81;62.65;;
72028;Laerm;59781;52.090;5.030;2024-03-02T07:36:59;53.44;43.40;75.32;;
72028;Laerm;59781;52.090;5.030;2024-03-02T07:39:25;47.05;42.49;66.10;;
72028;Laerm;59781;52.090;5.030;2024-03-02T07:41:51;50.46;42.71;72.12;;
72028;Laerm;59781;52.090;5.030;2024-03-02T07:44:18;48.51;42.43;70.50;;
72028;Laerm;59781;52.090;5.030;2024-03-02T07:46:46;49.55;43.37;68.70;;
72028;Laerm;59781;52.090;5.030;2024-03-02T07:49:13;48.10;44.15;64.59;;
72028;Laerm;59781;52.090;5.030;2024-03-02T07:51:39;50.28;43.52;74.73;;
72028;Laerm;59781;52.090;5.030;2024-03-02T07:54:05;47.27;42.91;61.52;;
72028;Laerm;59781;52.090;5.030;2024-03-02T07:56:31;50.92;43.56;75.99;;
72028;Laerm;59781;52.090;5.030;2024-03-02T07:58:57;50.31;43.55;72.60;;
72028;Laerm;59781;52.090;5.030;2024-03-02T08:01:31;55.29;43.70;77.60;;
72028;Laerm;59781;52.090;5.030;2024-03-02T08:03:59;48.52;43.43;68.43;;
72028;Laerm;59781;52.090;5.030;2024-03-02T08:06:28;48.96;42.78;75.95;;
72028;Laerm;59781;52.090;5.030;2024-03-02T08:08:56;49.87;43.49;78.47;;
72028;Laerm;59781;52.090;5.030;2024-03-02T08:11:22;47.75;42.80;64.55;;
72028;Laerm;59781;52.090;5.030;2024-03-02T08:13:49;48.96;43.75;67.52;;
72028;Laerm;59781;52.090;5.030;2024-03-02T08:16:16;47.83;43.05;68.55;;
72028;Laerm;59781;52.090;5.030;2024-03-02T08:18:47;47.34;43.31;62.41;;
72028;Laerm;59781;52.090;5.030;2024-03-02T08:21:13;50.19;43.66;74.68;;
72028;Laerm;59781;52.090;5.030;2024-03-02T08:23:40;48.51;42.41;65.92;;
72028;Laerm;59781;52.090;5.030;2024-03-02T08:26:08;56.35;44.80;79.75;;
72028;Laerm;59781;52.090;5.030;2024-03-02T08:28:34;50.15;43.88;77.05;;
72028;Laerm;59781;52.090;5.030;2024-03-02T08:31:00;57.45;44.41;78.79;;
72028;Laerm;59781;52.090;5.030;2024-03-02T08:33:25;54.08;44.66;81.32;;
72028;Laerm;59781;52.090;5.030;2024-03-02T08:35:51;54.12;45.48;83.76;;
72028;Laerm;59781;52.090;5.030;2024-03-02T08:38:17;52.12;44.87;73.72;;
72028;Laerm;59781;52.090;5.030;2024-03-02T08:40:44;56.08;44.43;82.35;;
72028;Laerm;59781;52.090;5.030;2024-03-02T08:43:09;55.58;43.69;86.52;;
72028;Laerm;59781;52.090;5.030;2024-03-02T08:45:35;51.90;43.39;77.44;;
72028;Laerm;59781;52.090;5.030;2024-03-02T08:48:01;51.01;44.70;74.26;;
72028;Laerm;59781;52.090;5.030;2024-03-02T08:50:27;50.44;44.25;67.41;;
72028;Laerm;59781;52.090;5.030;2024-03-02T08:52:52;55.75;44.99;85.98;;
72028;Laerm;59781;52.090;5.030;2024-03-02T08:55:18;49.63;44.97;66.84;;
72028;Laerm;59781;52.090;5.030;2024-03-02T08:57:44;52.53;44.21;73.37;;
72028;Laerm;59781;52.090;5.030;2024-03-02T09:00:10;49.44;44.25;64.08;;
72028;Laerm;59781;52.090;5.030;2024-03-02T09:02:37;50.62;44.47;67.89;;
72028;Laerm;59781;52.090;5.030;2024-03-02T09:05:03;51.31;44.64;68.04;;
72028;Laerm;59781;52.090;5.030;2024-03-02T09:07:29;68.46;44.71;96.80;;
72028;Laerm;59781;52.090;5.030;2024-03-02T09:09:55;53.17;43.89;68.39;;
72028;Laerm;59781;52.090;5.030;2024-03-02T09:12:21;50.09;43.90;70.73;;
72028;Laerm;59781;52.090;5.030;2024-03-02T09:14:47;57.27;43.85;84.46;;
72028;Laerm;59781;52.090;5.030;2024-03-02T09:17:13;54.42;44.08;72.97;;
72028;Laerm;59781;52.090;5.030;2024-03-02T09:19:39;58.25;45.12;79.01;;
72028;Laerm;59781;52.090;5.030;2024-03-02T09:22:05;57.49;44.81;84.16;;
72028;Laerm;59781;52.090;5.030;2024-03-02T09:24:32;57.18;44.53;76.08;;
72028;Laerm;59781;52.090;5.030;2024-03-02T09:26:59;54.40;44.85;79.44;;
72028;Laerm;59781;52.090;5.030;2024-03-02T09:29:25;55.08;44.54;75.79;;
72028;Laerm;59781;52.090;5.030;2024-03-02T09:31:50;58.84;43.33;85.39;;
72028;Laerm;59781;52.090;5.030;2024-03-02T09:34:17;53.73;43.19;78.82;;
72028;Laerm;59781;52.090;5.030;2024-03-02T09:36:43;47.64;43.58;55.68;;
72028;Laerm;59781;52.090;5.030;2024-03-02T09:39:10;57.82;44.75;83.41;;
72028;Laerm;59781;52.090;5.030;2024-03-02T09:41:37;57.42;45.17;80.40;;
72028;Laerm;59781;52.090;5.030;2024-03-02T09:44:05;57.47;44.12;84.21;;
72028;Laerm;59781;52.090;5.030;2024-03-02T09:46:31;49.04;44.80;72.19;;
72028;Laerm;59781;52.090;5.030;2024-03-02T09:48:57;51.84;43.80;71.84;;
72028;Laerm;59781;52.090;5.030;2024-03-02T09:51:23;53.32;44.49;79.54;;
72028;Laerm;59781;52.090;5.030;2024-03-02T09:53:50;49.43;43.95;59.95;;
72028;Laerm;59781;52.090;5.030;2024-03-02T09:56:16;48.70;43.64;70.65;;
72028;Laerm;59781;52.090;5.030;2024-03-02T09:58:42;48.87;43.05;62.87;;
72028;Laerm;59781;52.090;5.030;2024-03-02T10:01:09;51.96;43.16;71.50;;
72028;Laerm;59781;52.090;5.030;2024-03-02T10:03:37;60.84;44.82;86.68;;
72028;Laerm;59781;52.090;5.030;2024-03-02T10:06:24;61.45;44.10;86.71;;
72028;Laerm;59781;52.090;5.030;2024-03-02T10:08:51;58.15;44.09;82.60;;
72028;Laerm;59781;52.090;5.030;2024-03-02T10:11:29;55.60;42.58;79.94;;
72028;Laerm;59781;52.090;5.030;2024-03-02T10:14:13;54.06;43.29;77.57;;
72028;Laerm;59781;52.090;5.030;2024-03-02T10:16:44;58.44;42.51;85.55;;
72028;Laerm;59781;52.090;5.030;2024-03-02T10:19:23;57.24;43.37;79.62;;
72028;Laerm;59781;52.090;5.030;2024-03-02T10:21:52;56.95;43.98;83.31;;
72028;Laerm;59781;52.090;5.030;2024-03-02T10:24:20;49.93;43.19;71.26;;
72028;Laerm;59781;52.090;5.030;2024-03-02T10:26:48;53.72;42.95;78.17;;
72028;Laerm;59781;52.090;5.030;2024-03-02T10:29:14;52.50;42.19;73.67;;
72028;Laerm;59781;52.090;5.030;2024-03-02T10:31:42;61.02;43.46;87.77;;
72028;Laerm;59781;52.090;5.030;2024-03-02T10:34:10;68.26;44.66;95.63;;
72028;Laerm;59781;52.090;5.030;2024-03-02T10:36:41;58.22;43.92;84.13;;
72028;Laerm;59781;52.090;5.030;2024-03-02T10:39:08;54.90;45.14;79.68;;
72028;Laerm;59781;52.090;5.030;2024-03-02T10:41:37;58.93;43.32;80.78;;
72028;Laerm;59781;52.090;5.030;2024-03-02T10:44:06;53.78;43.68;77.52;;
72028;Laerm;59781;52.090;5.030;2024-03-02T10:46:36;58.86;44.66;84.58;;
72028;Laerm;59781;52.090;5.030;2024-03-02T10:49:05;50.68;43.43;75.31;;
72028;Laerm;59781;52.090;5.030;2024-03-02T10:51:34;58.29;43.17;83.11;;
72028;Laerm;59781;52.090;5.030;2024-03-02T10:54:03;60.86;42.74;86.62;;
72028;Laerm;59781;52.090;5.030;2024-03-02T10:56:37;57.15;43.62;81.96;;
72028;Laerm;59781;52.090;5.030;2024-03-02T11:01:59;60.51;44.85;81.00;;
72028;Laerm;59781;52.090;5.030;2024-03-02T11:04:28;54.34;43.51;74.51;;
72028;Laerm;59781;52.090;5.030;2024-03-02T11:07:11;55.97;44.08;79.60;;
72028;Laerm;59781;52.090;5.030;2024-03-02T11:09:49;61.30;44.93;82.83;;
72028;Laerm;59781;52.090;5.030;2024-03-02T11:12:29;53.37;43.48;82.70;;
72028;Laerm;59781;52.090;5.030;2024-03-02T11:14:58;51.52;42.30;66.62;;
72028;Laerm;59781;52.090;5.030;2024-03-02T11:17:26;49.69;44.16;69.32;;
72028;Laerm;59781;52.090;5.030;2024-03-02T11:19:55;54.97;42.09;77.15;;
72028;Laerm;59781;52.090;5.030;2024-03-02T11:22:23;57.65;42.30;89.59;;
72028;Laerm;59781;52.090;5.030;2024-03-02T11:24:52;56.24;43.18;83.71;;
72028;Laerm;59781;52.090;5.030;2024-03-02T11:33:07;67.39;43.78;93.99;;
72028;Laerm;59781;52.090;5.030;2024-03-02T11:35:37;68.82;44.16;95.66;;
72028;Laerm;59781;52.090;5.030;2024-03-02T11:38:04;60.59;45.92;84.79;;
72028;Laerm;59781;52.090;5.030;2024-03-02T11:40:30;55.28;43.32;80.78;;
72028;Laerm;59781;52.090;5.030;2024-03-02T11:42:57;54.28;43.81;80.10;;
72028;Laerm;59781;52.090;5.030;2024-03-02T11:45:26;56.62;43.74;78.83;;
72028;Laerm;59781;52.090;5.030;2024-03-02T11:47:56;56.96;44.55;82.37;;
72028;Laerm;59781;52.090;5.030;2024-03-02T11:50:41;55.34;44.90;76.17;;
